createdAt,value
2015-12-25T13:40:02.749Z,20.3
2015-12-25T13:40:18.421Z,20.3
2015-12-25T13:40:34.093Z,20.3
2015-12-25T13:40:49.767Z,20.3
2015-12-25T13:41:05.470Z,20.3
2015-12-25T13:41:21.204Z,20.3
2015-12-25T13:41:36.923Z,20.3
2015-12-25T13:41:52.644Z,21.1
2015-12-25T13:42:08.347Z,21
2015-12-25T13:42:24.112Z,21
2015-12-25T13:42:39.800Z,21.1
2015-12-25T13:42:55.475Z,21.1
2015-12-25T13:43:11.131Z,21.2
2015-12-25T13:43:26.787Z,21.2
2015-12-25T13:43:42.444Z,21.3
2015-12-25T13:43:58.118Z,21.3
2015-12-25T13:44:13.790Z,21.4
2015-12-25T13:44:29.790Z,21.4
2015-12-25T13:44:45.447Z,21.5
2015-12-25T13:45:01.183Z,21.5
2015-12-25T13:45:16.886Z,21.5
2015-12-25T13:45:32.574Z,21.5
2015-12-25T13:45:48.277Z,21.6
2015-12-25T13:46:04.031Z,21.6
2015-12-25T13:46:19.671Z,21.6
2015-12-25T13:46:35.359Z,21.7
2015-12-25T13:46:51.031Z,21.7
2015-12-25T13:47:06.720Z,21.7
2015-12-25T13:47:22.439Z,21.7
2015-12-25T13:47:38.126Z,21.7
2015-12-25T13:47:53.833Z,21.7
2015-12-25T13:48:09.504Z,21.7
2015-12-25T13:48:25.176Z,21.7
2015-12-25T13:48:40.864Z,21.7
2015-12-25T13:48:56.586Z,21.7
2015-12-25T13:49:12.304Z,21.7
2015-12-25T13:49:28.023Z,21.8
2015-12-25T13:49:43.836Z,21.7
2015-12-25T13:49:59.526Z,21.7
2015-12-25T13:50:15.182Z,21.7
2015-12-25T13:50:31.010Z,21.7
2015-12-25T13:50:46.651Z,21.7
2015-12-25T13:51:02.325Z,21.7
2015-12-25T13:51:18.122Z,21.7
2015-12-25T13:51:33.762Z,21.7
2015-12-25T13:51:49.419Z,21.8
2015-12-25T13:52:05.078Z,21.7
2015-12-25T13:52:20.765Z,21.7
2015-12-25T13:52:36.484Z,21.7
2015-12-25T13:52:52.234Z,21.8
2015-12-25T13:53:07.956Z,21.8
2015-12-25T13:53:23.643Z,21.8
2015-12-25T13:53:39.300Z,21.8
2015-12-25T13:53:54.956Z,21.8
2015-12-25T13:54:10.631Z,21.8
2015-12-25T13:54:26.303Z,21.8
2015-12-25T13:54:42.600Z,22
2015-12-25T13:54:58.602Z,22.1
2015-12-25T13:55:14.258Z,22.2
2015-12-25T13:55:29.914Z,22.2
2015-12-25T13:55:45.570Z,22.3
2015-12-25T13:56:01.244Z,22.4
2015-12-25T13:56:16.947Z,22.4
2015-12-25T13:56:32.588Z,22.4
2015-12-25T13:56:48.260Z,22.4
2015-12-25T13:57:04.028Z,22.4
2015-12-25T13:57:20.216Z,22.4
2015-12-25T13:57:35.966Z,22.4
2015-12-25T13:57:51.653Z,22.4
2015-12-25T13:58:07.345Z,22.2
2015-12-25T13:58:23.001Z,21.7
2015-12-25T13:58:38.689Z,21.3
2015-12-25T13:58:54.407Z,21
2015-12-25T13:59:10.050Z,20.8
2015-12-25T13:59:25.722Z,20.6
2015-12-25T13:59:41.456Z,20.5
2015-12-25T13:59:57.113Z,20.4
2015-12-25T14:00:12.772Z,20.3
2015-12-25T14:00:28.444Z,20.2
2015-12-25T14:00:44.147Z,20.1
2015-12-25T14:00:59.834Z,20
2015-12-25T14:01:15.525Z,20
2015-12-25T14:01:31.337Z,19.9
2015-12-25T14:01:47.025Z,19.9
2015-12-25T14:02:02.744Z,19.8
2015-12-25T14:02:18.403Z,19.8
2015-12-25T14:02:34.153Z,19.8
2015-12-25T14:02:50.309Z,19.8
2015-12-25T14:03:05.965Z,19.8
2015-12-25T14:03:22.405Z,19.7
2015-12-25T14:03:38.124Z,19.7
2015-12-25T14:03:53.795Z,19.7
2015-12-25T14:04:09.469Z,19.7
2015-12-25T14:04:25.204Z,19.7
2015-12-25T14:04:40.907Z,19.7
2015-12-25T14:04:56.626Z,19.7
2015-12-25T14:05:12.333Z,19.7
2015-12-25T14:05:28.005Z,19.7
2015-12-25T14:05:43.676Z,19.7
2015-12-25T14:05:59.348Z,19.7
2015-12-25T14:06:15.038Z,19.7
2015-12-25T14:06:31.538Z,19.7
2015-12-25T14:06:47.272Z,19.7
2015-12-25T14:07:03.022Z,19.7
2015-12-25T14:07:18.681Z,19.7
2015-12-25T14:07:34.369Z,19.7
2015-12-25T14:07:50.041Z,19.7
2015-12-25T14:08:05.900Z,19.7
2015-12-25T14:08:21.621Z,19.7
2015-12-25T14:08:37.340Z,19.7
2015-12-25T14:08:53.043Z,19.7
2015-12-25T14:09:08.746Z,19.7
2015-12-25T14:09:24.421Z,19.7
2015-12-25T14:09:40.124Z,19.7
2015-12-25T14:09:56.483Z,19.7
2015-12-25T14:10:12.155Z,19.7
2015-12-25T14:10:27.846Z,19.7
2015-12-25T14:10:43.518Z,19.7
2015-12-25T14:10:59.893Z,19.7
2015-12-25T14:11:15.646Z,19.7
2015-12-25T14:11:31.442Z,19.7
2015-12-25T14:11:48.021Z,19.7
2015-12-25T14:12:04.005Z,19.8
2015-12-25T14:12:19.679Z,19.7
2015-12-25T14:12:36.273Z,19.7
2015-12-25T14:12:51.929Z,19.7
2015-12-25T14:13:08.507Z,19.7
2015-12-25T14:13:24.182Z,19.7
2015-12-25T14:13:39.869Z,19.7
2015-12-25T14:13:55.541Z,19.7
2015-12-25T14:14:11.682Z,19.7
2015-12-25T14:14:27.357Z,19.7
2015-12-25T14:14:43.044Z,19.7
2015-12-25T14:14:58.888Z,19.7
2015-12-25T14:15:14.575Z,19.7
2015-12-25T14:15:30.266Z,19.7
2015-12-25T14:15:45.938Z,19.7
2015-12-25T14:16:01.672Z,19.7
2015-12-25T14:16:17.594Z,19.7
2015-12-25T14:16:33.253Z,19.7
2015-12-25T14:16:48.941Z,19.7
2015-12-25T14:17:04.613Z,19.7
2015-12-25T14:17:20.285Z,19.7
2015-12-25T14:17:35.991Z,19.7
2015-12-25T14:17:51.803Z,19.7
2015-12-25T14:18:07.538Z,19.7
2015-12-25T14:18:23.899Z,19.7
2015-12-25T14:18:39.633Z,19.7
2015-12-25T14:18:55.321Z,19.7
2015-12-25T14:19:11.008Z,19.7
2015-12-25T14:19:26.699Z,19.7
2015-12-25T14:19:42.386Z,19.7
2015-12-25T14:19:58.074Z,19.7
2015-12-25T14:20:13.871Z,19.7
2015-12-25T14:20:29.514Z,19.7
2015-12-25T14:20:45.296Z,19.7
2015-12-25T14:21:01.046Z,19.7
2015-12-25T14:21:16.702Z,19.7
2015-12-25T14:21:32.532Z,19.7
2015-12-25T14:21:48.204Z,19.7
2015-12-25T14:22:03.923Z,19.7
2015-12-25T14:22:19.923Z,19.7
2015-12-25T14:22:35.597Z,19.7
2015-12-25T14:22:51.379Z,19.7
2015-12-25T14:23:07.066Z,19.7
2015-12-25T14:23:22.707Z,19.7
2015-12-25T14:23:38.444Z,19.7
2015-12-25T14:23:54.116Z,19.7
2015-12-25T14:24:09.804Z,19.7
2015-12-25T14:24:25.507Z,19.7
2015-12-25T14:24:41.227Z,19.7
2015-12-25T14:24:56.946Z,19.7
2015-12-25T14:25:13.524Z,19.7
2015-12-25T14:25:29.230Z,19.7
2015-12-25T14:25:44.902Z,19.7
2015-12-25T14:26:00.543Z,19.7
2015-12-25T14:26:16.793Z,19.7
2015-12-25T14:26:32.451Z,19.7
2015-12-25T14:26:48.107Z,19.7
2015-12-25T14:27:03.889Z,19.7
2015-12-25T14:27:19.592Z,19.7
2015-12-25T14:27:35.314Z,19.7
2015-12-25T14:27:51.095Z,19.7
2015-12-25T14:28:06.798Z,19.7
2015-12-25T14:28:22.532Z,19.7
2015-12-25T14:28:38.223Z,19.7
2015-12-25T14:28:53.895Z,19.7
2015-12-25T14:29:09.582Z,19.7
2015-12-25T14:29:25.254Z,19.7
2015-12-25T14:29:40.913Z,19.7
2015-12-25T14:29:56.616Z,19.7
2015-12-25T14:30:12.304Z,19.7
2015-12-25T14:30:27.976Z,19.7
2015-12-25T14:30:38.634Z,19.7
2015-12-25T14:30:54.306Z,19.7
2015-12-25T14:31:09.993Z,19.8
2015-12-25T14:31:25.697Z,19.9
2015-12-25T14:31:42.138Z,20
2015-12-25T14:31:57.779Z,20.2
2015-12-25T14:32:13.919Z,20.3
2015-12-25T14:32:23.544Z,20.4
2015-12-25T14:32:39.218Z,20.9
2015-12-25T14:32:54.874Z,20.9
2015-12-25T14:33:10.593Z,21
2015-12-25T14:33:26.468Z,21
2015-12-25T15:02:57.089Z,22.4
2015-12-25T15:03:12.764Z,22.6
2015-12-25T15:03:28.451Z,22.8
2015-12-25T15:03:44.155Z,22.9
2015-12-25T15:03:59.861Z,22.8
2015-12-25T15:04:15.548Z,22.7
2015-12-25T15:04:31.236Z,22.7
2015-12-25T15:04:46.892Z,22.7
2015-12-25T15:05:02.598Z,22.7
2015-12-25T15:05:18.239Z,22.8
2015-12-25T15:05:33.895Z,22.8
2015-12-25T15:05:49.567Z,22.8
2015-12-25T15:06:05.209Z,22.8
2015-12-25T15:06:20.881Z,22.8
2015-12-25T15:06:36.647Z,22.8
2015-12-25T15:06:52.334Z,22.8
2015-12-25T15:07:08.025Z,22.8
2015-12-25T15:07:23.744Z,22.8
2015-12-25T15:07:39.431Z,22.7
2015-12-25T15:07:55.103Z,22.7
2015-12-25T15:08:10.761Z,22.7
2015-12-25T15:08:26.402Z,22.7
2015-12-25T15:08:42.043Z,22.7
2015-12-25T15:08:57.730Z,22.7
2015-12-25T16:31:17.453Z,25.5
2015-12-25T16:31:33.141Z,25.8
2015-12-25T17:56:43.746Z,23.8
2015-12-25T18:04:34.439Z,26.4
2015-12-25T18:04:50.096Z,26.5
2015-12-25T18:05:05.752Z,26.6
2015-12-25T18:05:21.471Z,26.6
2015-12-25T18:05:37.176Z,26.6
2015-12-25T18:05:52.848Z,26.6
2015-12-25T18:06:08.566Z,26.6
2015-12-25T18:06:24.270Z,26.6
2015-12-25T18:06:39.960Z,26.6
2015-12-25T18:06:55.663Z,26.6
2015-12-25T18:07:11.351Z,26.6
2015-12-25T18:07:27.041Z,26.6
2015-12-25T18:07:42.713Z,26.6
2015-12-25T18:07:58.432Z,26.6
2015-12-25T18:08:14.104Z,26.7
2015-12-25T18:08:29.779Z,26.7
2015-12-25T18:08:45.435Z,26.7
2015-12-25T18:09:01.091Z,26.7
2015-12-25T18:09:16.747Z,26.7
2015-12-25T18:09:32.421Z,26.7
2015-12-25T18:09:48.171Z,26.7
2015-12-25T18:10:03.843Z,26.7
2015-12-25T18:10:19.531Z,26.7
2015-12-25T18:10:35.205Z,26.7
2015-12-25T18:10:50.877Z,26.7
2015-12-25T18:11:06.565Z,26.8
2015-12-25T18:11:22.221Z,26.8
2015-12-25T18:11:37.912Z,26.8
2015-12-25T18:22:19.172Z,23.1
2015-12-25T18:22:34.941Z,23.1
2015-12-25T18:22:50.659Z,23.2
2015-12-25T18:23:06.331Z,23.1
2015-12-25T18:23:22.019Z,23.1
2015-12-25T18:23:37.694Z,23.1
2015-12-25T18:24:20.444Z,23.3
2015-12-25T18:24:36.072Z,23.4
2015-12-25T18:24:51.712Z,23.6
2015-12-25T18:25:07.400Z,23.7
2015-12-25T18:25:23.072Z,23.7
2015-12-25T18:25:38.745Z,23.8
2015-12-25T18:25:54.449Z,23.9
2015-12-25T18:27:06.842Z,23.8
2015-12-25T18:27:22.514Z,23.6
2015-12-25T18:27:38.205Z,23.3
2015-12-25T18:27:54.001Z,23
2015-12-25T18:28:09.673Z,22.6
2015-12-25T18:28:25.376Z,22.3
2015-12-25T18:28:41.019Z,21.9
2015-12-25T18:28:56.707Z,21.6
2015-12-25T18:29:12.394Z,21.2
2015-12-25T18:29:28.066Z,20.8
2015-12-25T18:29:43.789Z,20.5
2015-12-25T18:29:59.476Z,20.2
2015-12-25T18:30:15.242Z,19.8
2015-12-25T18:30:30.976Z,19.5
2015-12-25T18:30:46.759Z,19.2
2015-12-25T18:31:02.416Z,18.9
2015-12-25T18:31:18.134Z,18.6
2015-12-25T18:31:33.918Z,18.3
2015-12-25T18:31:49.605Z,18.1
2015-12-25T18:32:05.324Z,17.9
2015-12-25T18:32:20.996Z,17.6
2015-12-25T18:32:36.687Z,17.4
2015-12-25T18:32:52.375Z,17.2
2015-12-25T18:33:08.047Z,17
2015-12-25T18:33:23.750Z,16.8
2015-12-25T18:33:39.486Z,16.6
2015-12-25T18:33:55.158Z,16.5
2015-12-25T18:34:11.002Z,16.3
2015-12-25T18:34:26.830Z,16.2
2015-12-25T18:34:42.723Z,16.1
2015-12-25T18:34:58.441Z,15.9
2015-12-25T18:35:14.160Z,15.8
2015-12-25T18:35:29.832Z,15.7
2015-12-25T18:35:45.522Z,15.6
2015-12-25T18:36:01.241Z,15.4
2015-12-25T18:36:16.976Z,15.3
2015-12-25T18:36:32.647Z,15.2
2015-12-25T18:36:48.338Z,15.1
2015-12-25T18:37:04.041Z,15
2015-12-25T18:37:19.744Z,14.9
2015-12-25T18:37:35.419Z,14.8
2015-12-25T18:37:51.122Z,14.7
2015-12-25T18:38:06.857Z,14.6
2015-12-25T18:38:22.607Z,14.5
2015-12-25T18:38:38.328Z,14.5
2015-12-25T18:38:54.110Z,14.4
2015-12-25T18:39:09.828Z,14.3
2015-12-25T18:39:25.485Z,14.3
2015-12-25T18:39:41.190Z,14.2
2015-12-25T18:39:56.877Z,14.1
2015-12-25T18:40:12.580Z,14.1
2015-12-25T18:40:28.237Z,14
2015-12-25T18:40:43.911Z,14
2015-12-25T18:40:59.552Z,13.9
2015-12-25T18:41:15.208Z,13.8
2015-12-25T18:41:30.927Z,13.8
2015-12-25T18:41:46.711Z,13.8
2015-12-25T18:42:02.399Z,13.7
2015-12-25T18:42:18.133Z,13.7
2015-12-25T18:42:33.899Z,13.6
2015-12-25T18:42:49.605Z,13.6
2015-12-25T18:43:05.339Z,13.5
2015-12-25T18:43:21.027Z,13.5
2015-12-25T18:43:36.714Z,13.5
2015-12-25T18:43:52.405Z,13.4
2015-12-25T18:44:08.077Z,13.4
2015-12-25T18:44:23.780Z,13.4
2015-12-25T18:44:39.467Z,13.4
2015-12-25T18:44:55.141Z,13.3
2015-12-25T18:45:10.860Z,13.3
2015-12-25T18:45:26.657Z,13.3
2015-12-25T18:45:42.360Z,13.3
2015-12-25T18:45:58.144Z,13.2
2015-12-25T18:47:03.068Z,13.1
2015-12-25T18:47:18.756Z,13.1
2015-12-25T18:47:34.506Z,13
2015-12-25T18:47:50.274Z,13
2015-12-25T18:48:06.087Z,12.9
2015-12-25T18:48:21.790Z,12.9
2015-12-25T18:48:37.477Z,12.8
2015-12-25T18:48:53.199Z,12.8
2015-12-25T18:49:08.902Z,12.8
2015-12-25T18:49:24.574Z,12.7
2015-12-25T18:49:40.308Z,12.7
2015-12-25T18:49:56.077Z,12.7
2015-12-25T18:50:11.765Z,12.7
2015-12-25T18:50:27.811Z,12.7
2015-12-25T18:50:43.530Z,12.6
2015-12-25T18:50:59.221Z,12.5
2015-12-25T18:51:14.955Z,12.4
2015-12-25T18:51:30.658Z,12.4
2015-12-25T18:51:46.346Z,12.4
2015-12-25T18:52:02.036Z,12.4
2015-12-25T18:52:17.771Z,12.4
2015-12-25T18:52:33.505Z,12.4
2015-12-25T18:52:49.177Z,12.4
2015-12-25T18:53:04.851Z,12.4
2015-12-25T18:53:20.554Z,12.4
2015-12-25T18:53:36.241Z,12.4
2015-12-25T18:54:19.572Z,12.5
2015-12-25T18:54:35.244Z,12.6
2015-12-25T18:54:50.932Z,12.6
2015-12-25T18:55:01.654Z,12.7
2015-12-25T18:55:17.310Z,12.7
2015-12-25T18:55:33.044Z,12.7
2015-12-25T18:55:48.810Z,12.7
2015-12-25T18:56:04.500Z,12.8
2015-12-25T18:56:20.172Z,12.8
2015-12-25T18:56:35.953Z,12.8
2015-12-25T18:56:51.672Z,12.8
2015-12-25T18:57:07.346Z,12.8
2015-12-25T18:57:23.049Z,12.8
2015-12-25T18:57:38.784Z,12.9
2015-12-25T18:57:54.455Z,12.9
2015-12-25T18:58:10.146Z,12.9
2015-12-25T18:58:25.865Z,12.9
2015-12-25T18:58:41.583Z,12.9
2015-12-25T18:58:57.255Z,12.9
2015-12-25T18:59:12.960Z,12.9
2015-12-25T18:59:28.648Z,12.9
2015-12-25T18:59:44.367Z,12.9
2015-12-25T19:00:00.039Z,13
2015-12-25T19:00:15.698Z,13
2015-12-25T19:00:31.338Z,13
2015-12-25T19:00:47.042Z,13
2015-12-25T19:01:02.748Z,13
2015-12-25T19:01:18.545Z,13
2015-12-25T19:01:34.232Z,13
2015-12-25T19:01:49.935Z,13
2015-12-25T19:02:05.703Z,13.1
2015-12-25T19:02:21.390Z,13.1
2015-12-25T19:02:37.093Z,13.1
2015-12-25T19:02:52.797Z,13.1
2015-12-25T19:03:08.488Z,13.1
2015-12-25T19:03:24.238Z,13.1
2015-12-25T19:03:39.941Z,13.1
2015-12-25T19:03:55.629Z,13.1
2015-12-25T19:04:11.287Z,13.1
2015-12-25T19:04:27.021Z,13.1
2015-12-25T19:04:42.693Z,13.1
2015-12-25T19:04:58.428Z,13.1
2015-12-25T19:05:14.101Z,13.2
2015-12-25T19:05:29.789Z,13.2
2015-12-25T19:05:45.492Z,13.2
2015-12-25T19:06:01.195Z,13.2
2015-12-25T19:06:16.917Z,13.2
2015-12-25T19:06:32.604Z,13.2
2015-12-25T19:06:48.276Z,13.2
2015-12-25T19:07:03.948Z,13.2
2015-12-25T19:07:19.639Z,13.2
2015-12-25T19:07:35.311Z,13.2
2015-12-25T19:07:50.982Z,13.2
2015-12-25T19:08:06.639Z,13.2
2015-12-25T19:08:22.392Z,13.2
2015-12-25T19:08:38.142Z,13.2
2015-12-25T19:08:53.814Z,13.2
2015-12-25T19:09:09.551Z,13.2
2015-12-25T19:09:25.301Z,13.2
2015-12-25T19:09:41.020Z,13.2
2015-12-25T19:09:56.676Z,13.2
2015-12-25T19:10:12.429Z,13.2
2015-12-25T19:10:28.132Z,13.2
2015-12-25T19:10:43.804Z,13.2
2015-12-25T19:10:59.460Z,13.2
2015-12-25T19:11:15.150Z,13.2
2015-12-25T19:11:30.853Z,13.3
2015-12-25T19:11:46.540Z,13.2
2015-12-25T19:12:02.228Z,13.2
2015-12-25T19:12:17.965Z,13.2
2015-12-25T19:12:33.653Z,13.2
2015-12-25T19:12:49.403Z,13.2
2015-12-25T19:13:05.137Z,13.2
2015-12-25T19:13:20.873Z,13.2
2015-12-25T19:13:36.561Z,13.2
2015-12-25T19:13:52.233Z,13.2
2015-12-25T19:14:07.983Z,13.2
2015-12-25T19:14:23.673Z,13.2
2015-12-25T19:14:39.345Z,13.2
2015-12-25T19:14:55.017Z,13.2
2015-12-25T19:15:10.691Z,13.2
2015-12-25T19:15:26.410Z,13.2
2015-12-25T19:15:42.082Z,13.2
2015-12-25T19:15:57.753Z,13.2
2015-12-25T19:16:13.413Z,13.2
2015-12-25T19:16:29.168Z,13.2
2015-12-25T19:16:44.871Z,13.2
2015-12-25T19:17:00.558Z,13.2
2015-12-25T19:17:16.264Z,13.2
2015-12-25T19:17:32.030Z,13.2
2015-12-25T19:17:47.718Z,13.2
2015-12-25T19:18:03.405Z,13.2
2015-12-25T19:18:19.174Z,13.2
2015-12-25T19:18:34.846Z,13.2
2015-12-25T19:18:50.502Z,13.2
2015-12-25T19:19:06.158Z,13.2
2015-12-25T19:19:21.863Z,13.2
2015-12-25T19:19:37.582Z,13.3
2015-12-25T19:19:53.238Z,13.2
2015-12-25T19:20:08.941Z,13.3
2015-12-25T19:20:24.663Z,13.3
2015-12-25T19:20:40.335Z,13.3
2015-12-25T19:20:55.976Z,13.3
2015-12-25T19:21:11.682Z,13.2
2015-12-25T19:21:27.354Z,13.3
2015-12-25T19:21:43.041Z,13.3
2015-12-25T19:21:58.697Z,13.3
2015-12-25T19:22:14.371Z,13.3
2015-12-25T19:22:30.059Z,13.2
2015-12-25T19:22:45.731Z,13.2
2015-12-25T19:23:01.465Z,13.3
2015-12-25T19:23:17.171Z,13.3
2015-12-25T19:23:32.827Z,13.3
2015-12-25T19:23:48.530Z,13.3
2015-12-25T19:24:04.218Z,13.3
2015-12-25T19:24:19.924Z,13.3
2015-12-25T19:24:35.612Z,13.3
2015-12-25T19:24:51.315Z,13.3
2015-12-25T19:25:06.987Z,13.3
2015-12-25T19:25:22.677Z,13.3
2015-12-25T19:25:38.349Z,13.3
2015-12-25T19:25:54.021Z,13.3
2015-12-25T19:26:09.708Z,13.3
2015-12-25T19:26:25.383Z,13.3
2015-12-25T19:26:41.102Z,13.3
2015-12-25T19:26:56.914Z,13.2
2015-12-25T19:27:12.573Z,13.2
2015-12-25T19:27:28.354Z,13.2
2015-12-25T19:27:44.120Z,13.2
2015-12-25T19:27:59.885Z,13.2
2015-12-25T19:28:15.638Z,13.2
2015-12-25T19:28:31.513Z,13.2
2015-12-25T19:28:47.232Z,13.2
2015-12-25T19:29:02.888Z,13.2
2015-12-25T19:29:18.609Z,13.2
2015-12-25T19:29:34.296Z,13.2
2015-12-25T19:29:49.984Z,13.2
2015-12-25T19:30:05.640Z,13.2
2015-12-25T19:30:21.315Z,13.2
2015-12-25T19:30:36.971Z,13.2
2015-12-25T19:30:52.706Z,13.2
2015-12-25T19:31:08.596Z,13.2
2015-12-25T19:31:24.381Z,13.2
2015-12-25T19:31:40.068Z,13.2
2015-12-25T19:31:55.787Z,13.2
2015-12-25T19:32:11.521Z,13.2
2015-12-25T19:32:27.352Z,13.2
2015-12-25T19:32:43.055Z,13.2
2015-12-25T19:32:58.790Z,13.2
2015-12-25T19:33:14.464Z,13.2
2015-12-25T19:33:30.151Z,13.2
2015-12-25T19:33:45.823Z,13.2
2015-12-25T19:34:01.511Z,13.2
2015-12-25T19:34:17.185Z,13.2
2015-12-25T19:34:32.842Z,13.2
2015-12-25T19:34:48.545Z,13.3
2015-12-25T19:35:04.264Z,13.2
2015-12-25T19:35:19.953Z,13.2
2015-12-25T19:35:35.656Z,13.2
2015-12-25T19:35:51.453Z,13.2
2015-12-25T19:36:07.172Z,13.2
2015-12-25T19:36:22.831Z,13.2
2015-12-25T19:36:38.565Z,13.2
2015-12-25T19:36:54.269Z,13.2
2015-12-25T19:37:09.987Z,13.2
2015-12-25T19:37:25.662Z,13.2
2015-12-25T19:37:41.334Z,13.2
2015-12-25T19:37:57.006Z,13.2
2015-12-25T19:38:12.693Z,13.2
2015-12-25T19:38:28.384Z,13.3
2015-12-25T19:38:44.087Z,13.3
2015-12-25T19:38:59.806Z,13.3
2015-12-25T19:39:15.495Z,13.3
2015-12-25T19:39:31.245Z,13.3
2015-12-25T19:39:46.964Z,13.4
2015-12-25T19:40:02.667Z,13.4
2015-12-25T19:40:18.421Z,13.4
2015-12-25T19:40:34.140Z,13.4
2015-12-25T19:40:49.812Z,13.5
2015-12-25T19:41:05.499Z,13.5
2015-12-25T19:41:21.173Z,13.5
2015-12-25T19:41:36.861Z,13.5
2015-12-25T19:41:52.517Z,13.5
2015-12-25T19:42:08.236Z,13.6
2015-12-25T19:42:23.972Z,13.6
2015-12-25T19:42:39.675Z,13.6
2015-12-25T19:42:55.363Z,13.6
2015-12-25T19:43:11.144Z,13.6
2015-12-25T19:43:26.866Z,13.7
2015-12-25T19:43:42.569Z,13.7
2015-12-25T19:43:58.256Z,13.7
2015-12-25T19:44:13.991Z,13.7
2015-12-25T19:44:29.633Z,13.7
2015-12-25T19:44:45.352Z,13.7
2015-12-25T19:45:00.993Z,13.8
2015-12-25T19:45:16.668Z,13.7
2015-12-25T19:45:32.324Z,13.8
2015-12-25T19:45:48.011Z,13.8
2015-12-25T19:46:03.699Z,13.8
2015-12-25T19:46:19.358Z,13.8
2015-12-25T19:46:35.108Z,13.8
2015-12-25T19:46:50.827Z,13.8
2015-12-25T19:47:06.530Z,13.8
2015-12-25T19:47:22.236Z,13.8
2015-12-25T19:47:38.017Z,13.8
2015-12-25T19:47:53.799Z,13.8
2015-12-25T19:48:09.486Z,13.8
2015-12-25T19:48:25.192Z,13.8
2015-12-25T19:48:40.880Z,13.8
2015-12-25T19:48:56.552Z,13.8
2015-12-25T19:49:12.239Z,13.8
2015-12-25T19:49:27.913Z,13.8
2015-12-25T19:49:43.569Z,13.8
2015-12-25T19:51:52.168Z,11.5
2015-12-25T19:52:07.980Z,10.9
2015-12-25T19:52:23.703Z,10.6
2015-12-25T19:52:39.406Z,10.1
2015-12-25T19:52:55.188Z,9.7
2015-12-25T19:53:10.891Z,9.5
2015-12-25T19:53:26.565Z,9
2015-12-25T19:53:42.283Z,8.4
2015-12-25T19:53:57.940Z,8.8
2015-12-25T19:54:13.611Z,8.6
2015-12-25T19:54:29.271Z,8.5
2015-12-25T19:54:44.943Z,8.4
2015-12-25T19:55:00.630Z,8.5
2015-12-25T19:55:16.364Z,8.2
2015-12-25T19:55:32.055Z,8.2
2015-12-25T19:55:47.805Z,8.3
2015-12-25T19:56:03.524Z,8.2
2015-12-25T19:56:19.277Z,8.2
2015-12-25T19:56:34.995Z,8.2
2015-12-25T19:56:50.699Z,8.1
2015-12-25T19:57:06.355Z,8.1
2015-12-25T19:57:22.060Z,8.1
2015-12-25T19:57:37.732Z,8
2015-12-25T19:57:53.388Z,8.1
2015-12-25T19:58:09.044Z,8.1
2015-12-25T19:58:24.781Z,8.1
2015-12-25T19:58:40.468Z,8.2
2015-12-25T19:58:56.156Z,8.2
2015-12-25T19:59:11.843Z,8.2
2015-12-25T19:59:27.549Z,8.2
2015-12-25T19:59:43.221Z,8.2
2015-12-25T19:59:58.893Z,8.2
2015-12-25T20:00:14.581Z,8.2
2015-12-25T20:00:30.318Z,8.1
2015-12-25T20:00:46.021Z,8
2015-12-25T20:01:01.693Z,8.1
2015-12-25T20:01:17.380Z,8
2015-12-25T20:01:33.087Z,8
2015-12-25T20:01:48.790Z,7.9
2015-12-25T20:02:04.462Z,8
2015-12-25T20:02:20.121Z,7.6
2015-12-25T20:02:35.793Z,8.1
2015-12-25T20:02:51.480Z,8
2015-12-25T20:03:07.246Z,7.9
2015-12-25T20:03:22.967Z,7.9
2015-12-25T20:03:38.654Z,7.9
2015-12-25T20:03:54.357Z,7.8
2015-12-25T20:04:10.029Z,7.8
2015-12-25T20:04:25.704Z,7.8
2015-12-25T20:04:41.407Z,7.8
2015-12-25T20:04:57.079Z,7.8
2015-12-25T20:05:12.766Z,7.7
2015-12-25T20:05:28.456Z,7.7
2015-12-25T20:05:44.175Z,7.6
2015-12-25T20:05:59.893Z,7.7
2015-12-25T20:06:15.597Z,7.8
2015-12-25T20:06:31.318Z,7.8
2015-12-25T20:06:47.084Z,7.9
2015-12-25T20:07:02.787Z,7.9
2015-12-25T20:07:18.475Z,7.9
2015-12-25T20:07:34.321Z,7.9
2015-12-25T20:07:50.071Z,7.9
2015-12-25T20:08:05.759Z,7.5
2015-12-25T20:08:21.417Z,8.1
2015-12-25T20:08:37.089Z,8.1
2015-12-25T20:08:52.745Z,8.1
2015-12-25T20:09:08.401Z,8.1
2015-12-25T20:09:24.092Z,8.2
2015-12-25T20:09:39.748Z,8.2
2015-12-25T20:09:55.420Z,8.1
2015-12-25T20:10:11.092Z,8.1
2015-12-25T20:10:26.814Z,8.1
2015-12-25T20:10:42.486Z,8.1
2015-12-25T20:10:58.173Z,8
2015-12-25T20:11:13.923Z,8.1
2015-12-25T20:11:29.613Z,8
2015-12-25T20:11:45.300Z,8
2015-12-25T20:12:01.019Z,8
2015-12-25T20:12:16.753Z,7.9
2015-12-25T20:12:32.445Z,8
2015-12-25T20:12:48.117Z,8
2015-12-25T20:13:03.804Z,8
2015-12-25T20:13:19.492Z,8.1
2015-12-25T20:13:35.165Z,8.2
2015-12-25T20:13:50.869Z,8.2
2015-12-25T20:14:06.619Z,8.2
2015-12-25T20:14:22.372Z,8.1
2015-12-25T20:14:39.012Z,8
2015-12-25T20:14:54.731Z,8
2015-12-25T20:15:10.481Z,7.7
2015-12-25T20:15:26.155Z,8
2015-12-25T20:15:41.889Z,8
2015-12-25T20:15:57.577Z,7.6
2015-12-25T20:16:13.249Z,8
2015-12-25T20:16:28.908Z,8
2015-12-25T20:16:44.611Z,8
2015-12-25T20:17:00.298Z,8
2015-12-25T20:17:15.955Z,8
2015-12-25T20:17:31.723Z,8
2015-12-25T20:17:47.411Z,7.9
2015-12-25T20:18:03.067Z,8
2015-12-25T20:18:18.770Z,7.9
2015-12-25T20:18:34.553Z,8
2015-12-25T20:18:50.288Z,8
2015-12-25T20:19:06.053Z,8
2015-12-25T20:19:21.822Z,8
2015-12-25T20:19:37.541Z,8
2015-12-25T20:19:53.228Z,7.9
2015-12-25T20:20:09.010Z,7.9
2015-12-25T20:20:24.731Z,7.9
2015-12-25T20:20:40.403Z,7.8
2015-12-25T20:20:56.075Z,7.8
2015-12-25T20:21:11.763Z,7.8
2015-12-25T20:21:27.463Z,7.9
2015-12-25T20:21:43.166Z,8
2015-12-25T20:21:58.916Z,8
2015-12-25T20:22:14.650Z,8
2015-12-25T20:22:30.373Z,8
2015-12-25T20:22:46.091Z,8
2015-12-25T20:23:01.779Z,8
2015-12-25T20:23:17.466Z,8
2015-12-25T20:23:33.143Z,8
2015-12-25T20:23:48.846Z,8
2015-12-25T20:24:04.549Z,8.1
2015-12-25T20:24:20.346Z,8.1
2015-12-25T20:24:31.021Z,8.1
2015-12-25T20:24:46.709Z,7.6
2015-12-25T20:25:02.428Z,8.2
2015-12-25T20:25:18.146Z,8.1
2015-12-25T20:25:33.808Z,8.1
2015-12-25T20:25:49.465Z,8
2015-12-25T20:26:05.121Z,8
2015-12-25T20:26:20.824Z,8
2015-12-25T20:26:36.472Z,8
2015-12-25T20:26:52.300Z,8.1
2015-12-25T20:27:08.019Z,8
2015-12-25T20:27:23.673Z,8.1
2015-12-25T20:27:39.408Z,8.1
2015-12-25T20:27:55.251Z,8.2
2015-12-25T20:28:10.986Z,8.2
2015-12-25T20:28:26.703Z,8.2
2015-12-25T20:28:42.484Z,8.3
2015-12-25T20:28:58.156Z,8.2
2015-12-25T20:29:13.812Z,8.2
2015-12-25T20:29:29.451Z,8.2
2015-12-25T20:29:45.107Z,8.2
2015-12-25T20:30:00.779Z,8.2
2015-12-25T20:30:16.435Z,8.2
2015-12-25T20:30:32.166Z,8.3
2015-12-25T20:30:47.854Z,8.3
2015-12-25T20:31:03.573Z,8.3
2015-12-25T20:31:19.260Z,8.2
2015-12-25T20:31:34.993Z,8.2
2015-12-25T20:31:50.650Z,8.2
2015-12-25T20:32:06.353Z,8.1
2015-12-25T20:32:22.040Z,8.1
2015-12-25T20:32:37.792Z,8.1
2015-12-25T20:32:53.511Z,8.1
2015-12-25T20:33:09.245Z,8.1
2015-12-25T20:33:24.903Z,8.2
2015-12-25T20:33:40.559Z,7.7
2015-12-25T20:33:56.215Z,8.1
2015-12-25T20:34:11.903Z,8.1
2015-12-25T20:34:27.607Z,8.2
2015-12-25T20:34:43.294Z,8.2
2015-12-25T20:34:59.013Z,8.1
2015-12-25T20:35:14.810Z,8.2
2015-12-25T20:35:30.483Z,8.2
2015-12-25T20:35:46.248Z,8.2
2015-12-25T20:36:02.045Z,8.2
2015-12-25T20:36:17.764Z,7.8
2015-12-25T20:36:33.469Z,8.3
2015-12-25T20:36:49.188Z,8.2
2015-12-25T20:37:04.954Z,8.2
2015-12-25T20:37:20.657Z,8.2
2015-12-25T20:37:31.331Z,8.2
2015-12-25T20:37:47.018Z,8.2
2015-12-25T20:38:02.752Z,8.2
2015-12-25T20:38:18.409Z,8.3
2015-12-25T20:38:34.067Z,8.3
2015-12-25T20:38:49.770Z,8.3
2015-12-25T20:39:05.458Z,8.4
2015-12-25T20:39:21.129Z,8.4
2015-12-25T20:39:36.772Z,8.3
2015-12-25T20:39:52.475Z,8.3
2015-12-25T20:40:08.241Z,8.3
2015-12-25T20:40:23.944Z,8.3
2015-12-25T20:40:39.664Z,8.3
2015-12-25T20:40:55.476Z,8.2
2015-12-25T20:41:11.164Z,8.3
2015-12-25T20:41:26.948Z,8.4
2015-12-25T20:41:42.682Z,8.3
2015-12-25T20:41:58.385Z,8.3
2015-12-25T20:42:14.089Z,8.4
2015-12-25T20:42:29.747Z,8.4
2015-12-25T20:42:45.419Z,8.4
2015-12-25T20:43:01.091Z,8.5
2015-12-25T20:43:16.731Z,8.5
2015-12-25T20:43:32.501Z,8.5
2015-12-25T20:43:48.204Z,8.5
2015-12-25T20:44:03.891Z,8.5
2015-12-25T20:44:19.626Z,7.7
2015-12-25T20:44:35.393Z,8.5
2015-12-25T20:44:51.128Z,8.5
2015-12-25T20:45:06.815Z,8.4
2015-12-25T20:45:22.503Z,8.5
2015-12-25T20:45:38.209Z,8.5
2015-12-25T20:45:53.928Z,8.2
2015-12-25T20:46:09.584Z,8.4
2015-12-25T20:46:25.240Z,8.4
2015-12-25T20:46:40.899Z,8.3
2015-12-25T20:46:56.540Z,8.3
2015-12-25T20:47:12.478Z,8.4
2015-12-25T20:47:28.198Z,8.4
2015-12-25T20:47:43.855Z,8.5
2015-12-25T20:47:59.698Z,8.4
2015-12-25T20:48:15.464Z,8.4
2015-12-25T20:48:31.170Z,8.4
2015-12-25T20:48:46.826Z,8.4
2015-12-25T20:49:02.529Z,8.3
2015-12-25T20:49:18.248Z,8.3
2015-12-25T20:49:33.939Z,8.3
2015-12-25T20:49:49.595Z,8.4
2015-12-25T20:50:05.298Z,8.3
2015-12-25T20:50:20.970Z,8.4
2015-12-25T20:50:36.722Z,8.4